Time;durP1;ratioP1;P1;durP2;ratioP2;P2;SDS_P1;SDS_P2;PMS_P1;PMS_P2;Temp;Humidity;BMP_temperature;BMP_pressure;BME280_temperature;BME280_humidity;BME280_pressure;Samples;Min_cycle;Max_cycle;Signal;HPM_P1;HPM_P2
2023/12/02 00:02:22;;;;;;;43.20;22.60;;;;;;;0.31;68.70;99268.88;4976595;28;101350;-73
2023/12/02 00:04:47;;;;;;;48.57;24.57;;;;;;;0.43;68.19;99268.78;4964636;28;97481;-73
2023/12/02 00:07:13;;;;;;;47.27;22.67;;;;;;;0.59;68.26;99269.50;4953281;28;96952;-73
2023/12/02 00:09:38;;;;;;;43.43;24.10;;;;;;;0.83;67.89;99273.53;4964383;28;100593;-73
2023/12/02 00:12:04;;;;;;;46.17;24.50;;;;;;;0.85;67.13;99269.22;4983836;28;97929;-73
2023/12/02 00:14:30;;;;;;;42.73;23.63;;;;;;;0.82;67.39;99262.34;4984283;28;97029;-73
2023/12/02 00:16:55;;;;;;;51.03;25.10;;;;;;;0.42;67.19;99239.50;4952203;28;97010;-73
2023/12/02 00:19:21;;;;;;;46.93;23.73;;;;;;;0.63;67.64;99246.19;4964377;28;100752;-73
2023/12/02 00:21:47;;;;;;;49.90;26.33;;;;;;;0.87;66.94;99260.56;4962831;28;101766;-73
2023/12/02 00:24:12;;;;;;;50.10;25.83;;;;;;;0.80;67.20;99264.06;4981125;28;96931;-73
2023/12/02 00:26:38;;;;;;;49.27;25.30;;;;;;;0.80;67.63;99268.41;4966214;28;96879;-73
2023/12/02 00:29:03;;;;;;;41.97;21.97;;;;;;;0.88;67.36;99275.19;4978892;28;97340;-73
2023/12/02 00:31:29;;;;;;;45.93;22.83;;;;;;;0.99;66.98;99267.31;4964711;28;101302;-73
2023/12/02 00:33:57;;;;;;;32.17;19.17;;;;;;;1.01;66.17;99257.78;4984043;28;97857;-73
2023/12/02 00:36:22;;;;;;;40.23;20.77;;;;;;;1.01;66.20;99250.03;4975869;28;98054;-73
2023/12/02 00:38:48;;;;;;;38.43;18.73;;;;;;;1.04;66.32;99286.19;4960785;28;101543;-73
2023/12/02 00:41:13;;;;;;;35.70;18.23;;;;;;;1.17;66.06;99278.31;4961942;28;101089;-73
2023/12/02 00:43:39;;;;;;;41.03;19.57;;;;;;;1.25;65.91;99281.63;4981269;28;97962;-73
2023/12/02 00:46:05;;;;;;;33.50;17.57;;;;;;;1.17;65.65;99273.13;4966009;28;97177;-73
2023/12/02 00:48:30;;;;;;;34.87;18.37;;;;;;;1.13;65.52;99285.22;4980421;28;97842;-73
2023/12/02 00:50:56;;;;;;;34.93;19.13;;;;;;;0.95;66.03;99286.31;4958443;28;100757;-73
2023/12/02 00:53:21;;;;;;;32.70;17.63;;;;;;;1.13;66.22;99291.28;4964012;28;98166;-73
2023/12/02 00:55:47;;;;;;;31.07;17.40;;;;;;;1.19;65.74;99279.97;4977466;28;97165;-73
2023/12/02 00:58:12;;;;;;;37.03;18.90;;;;;;;1.26;65.43;99278.19;4981163;28;98063;-73
2023/12/02 01:00:38;;;;;;;34.53;17.80;;;;;;;1.29;65.41;99260.03;4982861;28;97623;-74
2023/12/02 01:03:05;;;;;;;36.07;17.73;;;;;;;1.40;64.87;99277.97;4961906;28;96947;-73
2023/12/02 01:05:30;;;;;;;33.20;19.33;;;;;;;1.36;65.49;99284.94;4977303;28;97197;-73
2023/12/02 01:07:56;;;;;;;30.17;17.53;;;;;;;1.42;65.27;99277.09;4964965;28;97837;-73
2023/12/02 01:10:21;;;;;;;37.40;19.53;;;;;;;1.51;64.92;99276.09;4980422;28;97323;-73
2023/12/02 01:12:47;;;;;;;34.53;19.00;;;;;;;1.45;64.99;99264.13;4941620;28;97135;-73
2023/12/02 01:15:12;;;;;;;36.93;19.50;;;;;;;1.16;65.12;99256.75;4979304;28;97160;-73
2023/12/02 01:17:38;;;;;;;30.20;17.00;;;;;;;1.01;65.88;99268.13;4993400;28;97418;-73
2023/12/02 01:20:04;;;;;;;31.03;16.17;;;;;;;0.89;65.83;99270.88;4964378;28;98528;-73
2023/12/02 01:22:30;;;;;;;31.63;17.23;;;;;;;0.76;66.59;99272.75;4982142;28;96832;-73
2023/12/02 01:24:55;;;;;;;29.00;16.23;;;;;;;0.92;66.34;99270.84;4980559;28;96758;-73
2023/12/02 01:27:21;;;;;;;31.90;16.77;;;;;;;1.08;66.00;99285.28;4949165;28;100761;-73
2023/12/02 01:29:46;;;;;;;30.87;17.87;;;;;;;1.18;66.01;99282.59;4964052;28;101779;-73
2023/12/02 01:32:12;;;;;;;32.70;17.93;;;;;;;1.28;65.49;99279.00;4981080;28;97231;-73
2023/12/02 01:34:38;;;;;;;30.40;16.17;;;;;;;1.40;65.05;99280.56;4965867;28;96692;-73
2023/12/02 01:37:03;;;;;;;32.27;17.43;;;;;;;1.33;65.36;99285.81;4946359;28;100983;-73
2023/12/02 01:39:29;;;;;;;35.53;17.43;;;;;;;1.42;65.13;99292.59;4960557;28;101671;-73
2023/12/02 01:41:54;;;;;;;32.83;18.40;;;;;;;1.42;64.76;99274.50;4963672;28;97243;-74
2023/12/02 01:44:20;;;;;;;34.40;18.03;;;;;;;1.42;65.17;99291.75;4984068;28;97456;-73
2023/12/02 01:46:46;;;;;;;35.73;17.47;;;;;;;1.36;65.04;99295.28;4962904;28;101656;-73
2023/12/02 01:49:12;;;;;;;31.20;16.90;;;;;;;1.50;64.80;99292.50;4980360;28;97379;-73
2023/12/02 01:51:37;;;;;;;34.17;17.43;;;;;;;1.42;64.87;99279.69;4966298;28;97369;-73
2023/12/02 01:54:03;;;;;;;31.13;16.70;;;;;;;1.24;65.18;99282.50;4962684;28;96788;-73
2023/12/02 01:56:29;;;;;;;33.07;18.60;;;;;;;1.35;65.23;99278.91;4962040;28;97431;-73
2023/12/02 01:58:55;;;;;;;34.77;17.13;;;;;;;1.32;64.76;99280.69;4965792;28;97157;-73
2023/12/02 02:01:20;;;;;;;32.30;16.80;;;;;;;1.16;64.96;99280.00;4948551;28;97632;-73
2023/12/02 02:03:49;;;;;;;30.07;16.03;;;;;;;1.24;65.27;99267.84;4982170;28;96942;-73
2023/12/02 02:06:14;;;;;;;32.10;18.93;;;;;;;1.28;65.01;99263.50;4960576;28;101802;-73
2023/12/02 02:08:40;;;;;;;32.63;18.20;;;;;;;1.45;64.92;99273.63;4949011;28;101425;-73
2023/12/02 02:11:05;;;;;;;32.97;17.80;;;;;;;1.55;64.92;99270.03;4980361;28;97644;-73
2023/12/02 02:13:31;;;;;;;29.23;16.40;;;;;;;1.54;64.34;99270.88;4977167;28;97268;-73
2023/12/02 02:15:57;;;;;;;28.20;15.73;;;;;;;1.38;64.52;99251.31;4965752;28;97367;-73
2023/12/02 02:18:22;;;;;;;31.67;15.97;;;;;;;1.40;64.50;99271.09;4962723;28;101532;-73
2023/12/02 02:20:50;;;;;;;32.30;15.80;;;;;;;1.47;64.68;99271.88;4977150;28;96778;-74
2023/12/02 02:23:16;;;;;;;26.90;15.87;;;;;;;1.43;64.52;99276.25;4945970;28;97591;-73
2023/12/02 02:25:42;;;;;;;28.03;14.80;;;;;;;1.40;64.22;99284.03;4963736;28;97983;-73
2023/12/02 02:28:07;;;;;;;30.43;16.13;;;;;;;1.24;64.98;99278.19;4943877;28;101100;-73
2023/12/02 02:30:32;;;;;;;29.27;14.83;;;;;;;1.10;65.00;99268.00;4980250;28;96797;-73
2023/12/02 02:32:58;;;;;;;27.43;15.00;;;;;;;1.22;65.11;99272.22;4977554;28;96828;-73
2023/12/02 02:35:23;;;;;;;29.23;14.90;;;;;;;1.30;64.94;99278.13;4997737;28;97383;-73
2023/12/02 02:37:49;;;;;;;29.73;16.73;;;;;;;1.36;64.20;99264.25;4980235;28;101667;-73
2023/12/02 02:40:15;;;;;;;30.43;16.97;;;;;;;1.38;64.60;99270.25;4962934;28;98592;-73
2023/12/02 02:42:41;;;;;;;30.53;15.47;;;;;;;1.43;64.39;99259.88;4942453;28;97231;-73
2023/12/02 02:45:07;;;;;;;32.23;16.10;;;;;;;1.32;64.45;99252.25;4963892;28;101744;-73
2023/12/02 02:47:32;;;;;;;28.87;14.67;;;;;;;1.40;64.88;99246.94;4964869;28;97598;-73
2023/12/02 02:49:57;;;;;;;31.80;15.90;;;;;;;1.46;64.09;99244.31;4961497;28;97187;-73
2023/12/02 02:52:23;;;;;;;25.93;14.30;;;;;;;1.46;64.34;99242.56;4981758;28;96745;-73
2023/12/02 02:54:48;;;;;;;27.80;15.73;;;;;;;1.37;64.19;99245.28;4994664;28;97985;-73
2023/12/02 02:57:14;;;;;;;27.47;14.80;;;;;;;1.32;63.82;99241.91;4968002;28;97919;-73
2023/12/02 02:59:39;;;;;;;24.13;12.80;;;;;;;1.42;63.97;99240.03;4957726;28;100794;-73
2023/12/02 03:02:05;;;;;;;27.70;14.77;;;;;;;1.39;63.89;99227.16;4964382;28;96862;-73
2023/12/02 03:04:30;;;;;;;29.13;15.20;;;;;;;1.56;63.50;99235.53;4961267;28;97422;-73
2023/12/02 03:06:56;;;;;;;32.67;16.13;;;;;;;1.57;63.92;99232.94;4962280;28;97747;-73
2023/12/02 03:09:21;;;;;;;31.80;16.20;;;;;;;1.63;63.92;99239.75;4963714;28;97130;-73
2023/12/02 03:11:48;;;;;;;31.87;17.23;;;;;;;1.62;64.16;99237.16;4981137;28;97320;-73
2023/12/02 03:14:14;;;;;;;37.57;17.87;;;;;;;1.59;63.94;99236.31;4965428;28;97814;-73
2023/12/02 03:16:39;;;;;;;37.73;20.20;;;;;;;1.67;63.84;99238.81;4965878;28;97754;-73
2023/12/02 03:19:05;;;;;;;46.10;23.73;;;;;;;1.53;63.93;99239.00;4949836;28;96798;-73
2023/12/02 03:21:30;;;;;;;52.17;26.70;;;;;;;1.55;63.47;99218.31;4948386;28;96860;-73
2023/12/02 03:23:56;;;;;;;60.10;29.93;;;;;;;1.51;63.89;99212.31;4965499;28;97516;-73
2023/12/02 03:26:23;;;;;;;58.27;30.93;;;;;;;1.49;63.69;99218.41;4946552;28;100828;-73
2023/12/02 03:28:49;;;;;;;54.03;27.43;;;;;;;1.46;63.67;99229.63;4978610;28;97359;-73
2023/12/02 03:31:14;;;;;;;60.87;30.20;;;;;;;1.54;63.88;99229.50;4965704;28;97418;-73
2023/12/02 03:33:39;;;;;;;51.63;28.23;;;;;;;1.48;63.92;99224.44;4962100;28;101363;-74
2023/12/02 03:36:05;;;;;;;58.40;28.60;;;;;;;1.46;64.07;99216.72;4961245;28;101081;-73
2023/12/02 03:38:31;;;;;;;51.80;28.23;;;;;;;1.39;64.14;99217.66;4966296;28;97156;-73
2023/12/02 03:40:56;;;;;;;58.17;30.67;;;;;;;1.46;63.63;99214.13;4963620;28;98156;-73
2023/12/02 03:43:22;;;;;;;52.47;27.50;;;;;;;1.42;63.86;99209.84;4947365;28;100917;-73
2023/12/02 03:45:47;;;;;;;56.73;30.87;;;;;;;1.43;64.20;99213.31;4967900;28;97497;-73
2023/12/02 03:48:13;;;;;;;58.07;29.63;;;;;;;1.48;64.04;99216.66;4966403;28;96824;-73
2023/12/02 03:50:38;;;;;;;59.50;31.27;;;;;;;1.45;64.08;99211.53;4966711;28;97085;-73
2023/12/02 03:53:04;;;;;;;58.03;30.27;;;;;;;1.47;64.04;99214.97;4944431;28;101264;-73
2023/12/02 03:55:30;;;;;;;62.40;30.93;;;;;;;1.42;64.16;99212.44;4963800;28;97816;-73
2023/12/02 03:57:55;;;;;;;63.13;30.47;;;;;;;1.50;64.01;99233.03;4965154;28;96850;-74
2023/12/02 04:00:21;;;;;;;67.03;34.90;;;;;;;1.52;63.86;99229.53;4978947;28;98178;-73
2023/12/02 04:02:46;;;;;;;75.37;35.73;;;;;;;1.53;63.99;99238.16;4981717;28;97426;-73
2023/12/02 04:05:13;;;;;;;60.87;32.57;;;;;;;1.54;63.90;99235.56;4981325;28;101125;-73
2023/12/02 04:07:39;;;;;;;70.73;35.07;;;;;;;1.44;63.82;99209.84;4980890;28;97297;-73
2023/12/02 04:10:06;;;;;;;75.93;38.20;;;;;;;1.39;63.87;99234.91;4985162;28;97611;-73
2023/12/02 04:12:31;;;;;;;70.67;38.57;;;;;;;1.48;64.16;99234.78;4962222;28;101004;-73
2023/12/02 04:14:57;;;;;;;74.10;39.73;;;;;;;1.49;63.62;99237.34;4962401;28;98156;-74
2023/12/02 04:17:23;;;;;;;71.93;38.10;;;;;;;1.43;63.56;99239.19;4982565;28;98182;-73
2023/12/02 04:19:48;;;;;;;79.40;42.53;;;;;;;1.36;63.72;99228.03;4980891;28;97219;-73
2023/12/02 04:22:15;;;;;;;75.77;41.23;;;;;;;1.44;63.97;99230.53;4951743;28;101070;-73
2023/12/02 04:24:41;;;;;;;81.77;41.90;;;;;;;1.46;64.29;99247.75;4982540;28;97417;-73
2023/12/02 04:27:07;;;;;;;75.67;41.10;;;;;;;1.52;64.12;99251.97;4984292;28;96810;-73
2023/12/02 04:29:36;;;;;;;75.37;40.77;;;;;;;1.57;63.52;99251.03;4964244;28;97523;-73
2023/12/02 04:32:03;;;;;;;77.17;38.67;;;;;;;1.58;63.73;99242.38;4981001;28;97620;-73
2023/12/02 04:34:30;;;;;;;77.03;40.60;;;;;;;1.53;63.91;99227.81;4967123;28;101070;-74
2023/12/02 04:36:55;;;;;;;67.90;38.43;;;;;;;1.55;63.71;99223.47;4950561;28;98029;-73
2023/12/02 04:39:21;;;;;;;70.67;39.10;;;;;;;1.51;63.95;99232.13;4979825;28;96951;-73
2023/12/02 04:41:46;;;;;;;76.20;40.33;;;;;;;1.51;63.39;99224.38;4961509;28;101407;-73
2023/12/02 04:44:12;;;;;;;72.50;38.87;;;;;;;1.44;63.75;99197.75;4945276;28;101101;-73
2023/12/02 04:46:37;;;;;;;74.67;38.93;;;;;;;1.41;63.84;99197.81;4986040;28;96826;-73
2023/12/02 04:49:03;;;;;;;63.23;37.53;;;;;;;1.42;63.51;99204.69;4980499;28;97074;-73
2023/12/02 04:51:29;;;;;;;67.87;37.37;;;;;;;1.36;64.20;99191.84;4963290;28;97955;-73
2023/12/02 04:53:54;;;;;;;66.13;36.27;;;;;;;1.41;63.93;99197.81;4983703;28;97519;-73
2023/12/02 04:56:20;;;;;;;66.07;35.80;;;;;;;1.41;64.32;99202.97;4983068;28;96945;-74
2023/12/02 04:58:45;;;;;;;69.40;35.60;;;;;;;1.45;63.48;99198.59;4980509;28;96959;-73
2023/12/02 05:01:11;;;;;;;59.30;32.57;;;;;;;1.40;63.97;99188.34;4962630;28;101482;-73
2023/12/02 05:03:36;;;;;;;59.10;33.37;;;;;;;1.21;64.07;99164.47;4960690;28;100697;-73
2023/12/02 05:06:02;;;;;;;58.30;31.40;;;;;;;1.18;63.75;99167.09;4964580;28;98321;-73
2023/12/02 05:08:27;;;;;;;55.13;30.33;;;;;;;1.33;64.12;99186.72;4980907;28;96951;-73
2023/12/02 05:10:54;;;;;;;57.63;31.13;;;;;;;1.38;64.09;99195.25;4968601;28;98738;-73
2023/12/02 05:13:19;;;;;;;55.87;31.50;;;;;;;1.43;63.78;99192.63;4979397;28;101091;-73
2023/12/02 05:15:45;;;;;;;57.43;31.73;;;;;;;1.41;63.72;99202.13;4981794;28;96824;-73
2023/12/02 05:18:11;;;;;;;55.57;29.43;;;;;;;1.42;63.50;99202.09;4981035;28;96833;-73
2023/12/02 05:20:37;;;;;;;56.27;30.90;;;;;;;1.46;63.66;99205.50;4983869;28;97927;-73
2023/12/02 05:23:02;;;;;;;56.27;31.43;;;;;;;1.47;63.37;99202.88;4981016;28;98496;-73
2023/12/02 05:25:28;;;;;;;62.17;33.07;;;;;;;1.50;63.70;99196.81;4948965;28;96756;-73
2023/12/02 05:27:53;;;;;;;55.27;31.87;;;;;;;1.50;63.69;99196.81;4965385;28;96971;-73
2023/12/02 05:30:19;;;;;;;64.37;35.07;;;;;;;1.51;63.79;99180.41;4965112;28;97887;-73
2023/12/02 05:32:44;;;;;;;63.20;36.17;;;;;;;1.55;63.87;99180.34;4963847;28;97801;-73
2023/12/02 05:35:13;;;;;;;66.70;34.93;;;;;;;1.41;63.85;99165.94;4983633;28;98213;-73
2023/12/02 05:37:39;;;;;;;71.17;36.07;;;;;;;1.54;63.78;99170.00;4965692;28;97395;-73
2023/12/02 05:40:07;;;;;;;70.67;37.80;;;;;;;1.53;63.41;99173.50;4984258;28;97375;-73
2023/12/02 05:42:33;;;;;;;67.93;35.33;;;;;;;1.52;63.44;99164.88;4959948;28;101421;-73
2023/12/02 05:44:59;;;;;;;71.77;37.37;;;;;;;1.51;63.40;99170.94;4981441;28;97439;-73
2023/12/02 05:47:24;;;;;;;70.97;38.50;;;;;;;1.47;63.96;99181.34;4961423;28;97217;-73
2023/12/02 05:49:50;;;;;;;75.77;38.30;;;;;;;1.46;64.05;99193.44;4960516;28;101880;-73
2023/12/02 05:52:16;;;;;;;71.70;39.90;;;;;;;1.45;63.92;99183.09;4965726;28;97233;-73
2023/12/02 05:54:41;;;;;;;82.10;39.93;;;;;;;1.33;63.78;99177.22;4963468;28;98758;-73
2023/12/02 05:57:07;;;;;;;67.07;37.67;;;;;;;1.39;63.96;99199.56;4965642;28;96873;-73
2023/12/02 05:59:32;;;;;;;67.10;37.83;;;;;;;1.46;63.77;99202.94;4967915;28;97664;-73
2023/12/02 06:01:58;;;;;;;73.47;39.03;;;;;;;1.47;63.82;99204.63;4958050;28;101237;-74
2023/12/02 06:04:23;;;;;;;79.83;40.73;;;;;;;1.49;63.60;99203.72;4955732;28;96733;-73
2023/12/02 06:06:49;;;;;;;72.40;37.77;;;;;;;1.49;63.06;99202.88;4977824;28;97176;-73
2023/12/02 06:09:15;;;;;;;68.23;40.83;;;;;;;1.59;62.84;99213.03;4976320;28;97464;-74
2023/12/02 06:11:40;;;;;;;67.70;36.27;;;;;;;1.53;63.10;99205.38;4982122;28;97479;-73
2023/12/02 06:14:05;;;;;;;75.27;39.33;;;;;;;1.55;63.00;99201.03;4956093;28;97059;-73
2023/12/02 06:16:31;;;;;;;76.00;38.80;;;;;;;1.60;63.00;99198.41;4942474;28;96868;-74
2023/12/02 06:18:56;;;;;;;70.87;37.40;;;;;;;1.54;63.49;99194.19;4958809;28;101069;-73
2023/12/02 06:21:22;;;;;;;75.33;39.20;;;;;;;1.45;63.35;99204.63;4977942;28;101391;-73
2023/12/02 06:23:47;;;;;;;76.07;38.60;;;;;;;1.48;63.85;99217.50;4979901;28;96901;-73
2023/12/02 06:26:13;;;;;;;74.10;37.90;;;;;;;1.54;63.07;99216.56;4943889;28;96939;-73
2023/12/02 06:28:39;;;;;;;70.27;37.80;;;;;;;1.58;63.71;99215.66;4960315;28;101017;-73
2023/12/02 06:31:14;;;;;;;67.93;36.27;;;;;;;1.56;63.89;99209.66;4942130;28;101330;-73
2023/12/02 06:33:40;;;;;;;71.30;39.00;;;;;;;1.50;64.07;99212.34;4980100;28;98010;-73
2023/12/02 06:36:06;;;;;;;75.13;40.60;;;;;;;1.48;63.76;99217.50;4997284;28;97609;-73
2023/12/02 06:38:31;;;;;;;77.67;39.30;;;;;;;1.41;63.56;99221.09;4965324;28;101671;-73
2023/12/02 06:40:57;;;;;;;79.97;38.17;;;;;;;1.54;63.43;99227.81;4949416;28;100480;-73
2023/12/02 06:43:22;;;;;;;69.83;37.40;;;;;;;1.56;63.41;99225.16;4949946;28;96797;-73
2023/12/02 06:45:48;;;;;;;69.43;35.87;;;;;;;1.54;63.33;99219.16;4986209;28;96850;-73
2023/12/02 06:48:13;;;;;;;71.97;39.10;;;;;;;1.52;63.23;99220.94;4967953;28;100821;-73
2023/12/02 06:50:39;;;;;;;71.43;37.13;;;;;;;1.48;63.35;99220.09;4983059;28;97464;-73
2023/12/02 06:53:04;;;;;;;68.10;36.03;;;;;;;1.56;63.88;99233.78;4967738;28;97259;-73
2023/12/02 06:55:32;;;;;;;67.73;34.37;;;;;;;1.60;63.45;99234.63;4965832;28;96839;-73
2023/12/02 06:57:59;;;;;;;69.17;35.03;;;;;;;1.56;63.60;99231.19;4968564;28;97911;-73
2023/12/02 07:00:25;;;;;;;67.27;36.20;;;;;;;1.55;63.66;99229.50;4944486;28;102054;-73
2023/12/02 07:02:51;;;;;;;64.20;33.47;;;;;;;1.54;63.57;99234.69;4968902;28;97211;-73
2023/12/02 07:05:17;;;;;;;66.67;35.27;;;;;;;1.43;63.73;99215.91;4984998;28;96732;-74
2023/12/02 07:07:42;;;;;;;60.17;34.37;;;;;;;1.54;63.75;99238.16;4967515;28;100780;-74
2023/12/02 07:10:09;;;;;;;62.90;33.83;;;;;;;1.56;63.88;99226.03;4966234;28;97870;-74
2023/12/02 07:12:35;;;;;;;63.63;31.97;;;;;;;1.49;63.78;99218.41;4998329;28;97058;-73
2023/12/02 07:15:01;;;;;;;58.97;33.73;;;;;;;1.54;63.71;99232.09;4980354;28;96957;-74
2023/12/02 07:17:27;;;;;;;64.70;35.20;;;;;;;1.51;63.73;99238.19;4982700;28;101729;-73
2023/12/02 07:19:52;;;;;;;59.00;33.17;;;;;;;1.53;63.58;99240.75;4965296;28;97410;-74
2023/12/02 07:22:18;;;;;;;63.23;33.83;;;;;;;1.48;63.56;99251.13;4965527;28;96790;-74
2023/12/02 07:24:43;;;;;;;55.97;30.53;;;;;;;1.56;63.87;99253.63;4967713;28;98703;-73
2023/12/02 07:27:09;;;;;;;63.27;30.47;;;;;;;1.52;63.99;99247.66;4964501;28;101127;-73
2023/12/02 07:29:35;;;;;;;67.77;35.27;;;;;;;1.40;64.51;99245.25;4982727;28;97496;-74
2023/12/02 07:32:01;;;;;;;71.80;33.50;;;;;;;1.40;64.05;99252.13;4967974;28;98485;-73
2023/12/02 07:34:26;;;;;;;61.53;32.17;;;;;;;1.50;63.67;99238.19;4977642;28;96972;-74
2023/12/02 07:36:52;;;;;;;62.57;32.00;;;;;;;1.66;64.09;99262.09;4944476;28;99770;-74
2023/12/02 07:39:17;;;;;;;71.10;33.10;;;;;;;1.69;64.05;99265.53;4983288;28;97250;-73
2023/12/02 07:41:45;;;;;;;59.17;33.43;;;;;;;1.65;63.75;99276.78;4985395;28;96758;-73
2023/12/02 07:44:11;;;;;;;62.33;32.43;;;;;;;1.56;64.11;99257.06;4966829;28;97856;-73
2023/12/02 07:46:37;;;;;;;61.67;33.90;;;;;;;1.73;63.76;99284.44;4980836;28;102329;-74
2023/12/02 07:49:02;;;;;;;59.23;31.73;;;;;;;1.66;63.71;99290.56;4977662;28;97292;-74
2023/12/02 07:51:28;;;;;;;61.77;31.80;;;;;;;1.68;63.58;99294.00;4964125;28;97928;-74
2023/12/02 07:53:53;;;;;;;66.33;32.50;;;;;;;1.69;64.05;99296.56;4980523;28;96928;-74
2023/12/02 07:56:19;;;;;;;68.10;32.50;;;;;;;1.68;63.83;99292.25;4965223;28;101821;-74
2023/12/02 07:58:44;;;;;;;68.67;34.30;;;;;;;1.67;64.03;99287.13;4977396;28;97219;-73
2023/12/02 08:01:10;;;;;;;58.37;34.20;;;;;;;1.76;63.88;99285.25;4947012;28;99085;-73
2023/12/02 08:03:36;;;;;;;67.00;35.80;;;;;;;1.66;64.25;99285.38;4969289;28;97317;-73
2023/12/02 08:06:01;;;;;;;65.00;34.23;;;;;;;1.75;64.21;99290.44;4948367;28;101456;-73
2023/12/02 08:08:27;;;;;;;65.43;34.23;;;;;;;1.71;63.88;99288.75;4966457;28;101112;-73
2023/12/02 08:10:52;;;;;;;71.50;34.90;;;;;;;1.79;64.10;99292.94;4965031;28;98421;-73
2023/12/02 08:13:18;;;;;;;65.27;34.27;;;;;;;1.76;64.04;99287.81;4963070;28;96947;-73
2023/12/02 08:15:43;;;;;;;65.77;33.70;;;;;;;1.73;64.15;99290.47;4981415;28;97355;-73
2023/12/02 08:18:08;;;;;;;63.43;34.10;;;;;;;1.78;63.61;99283.50;4977637;28;97350;-73
2023/12/02 08:20:34;;;;;;;70.13;36.70;;;;;;;1.80;63.86;99276.56;4960489;28;97287;-73
2023/12/02 08:22:59;;;;;;;70.00;35.47;;;;;;;1.90;63.66;99268.66;4960409;28;96968;-73
2023/12/02 08:25:25;;;;;;;64.10;35.10;;;;;;;1.91;63.75;99273.78;4977661;28;98045;-73
2023/12/02 08:27:51;;;;;;;70.20;35.40;;;;;;;1.92;64.31;99269.47;4957593;28;99199;-73
2023/12/02 08:30:16;;;;;;;64.20;34.27;;;;;;;1.56;64.75;99254.47;4942359;28;97336;-74
2023/12/02 08:32:42;;;;;;;60.20;32.97;;;;;;;1.80;64.57;99286.03;4975114;28;97667;-73
2023/12/02 08:35:07;;;;;;;60.97;33.93;;;;;;;1.90;64.15;99274.69;4972532;28;101031;-73
2023/12/02 08:37:33;;;;;;;61.67;32.93;;;;;;;1.88;64.76;99280.75;4963834;28;101006;-73
2023/12/02 08:40:01;;;;;;;67.77;34.37;;;;;;;1.95;64.28;99291.00;4960990;28;96878;-73
2023/12/02 08:42:26;;;;;;;67.03;36.03;;;;;;;2.10;64.40;99292.50;4972741;28;97033;-74
2023/12/02 08:44:52;;;;;;;59.40;33.90;;;;;;;2.20;64.32;99293.19;4979381;28;99058;-74
2023/12/02 08:47:17;;;;;;;64.00;35.00;;;;;;;2.18;64.17;99305.31;4980526;28;100952;-73
2023/12/02 08:49:43;;;;;;;67.70;36.43;;;;;;;2.11;64.34;99309.72;4977827;28;98420;-73
2023/12/02 08:52:08;;;;;;;66.10;35.60;;;;;;;2.15;64.11;99310.53;4951615;28;98002;-74
2023/12/02 08:54:34;;;;;;;63.33;33.60;;;;;;;2.21;63.68;99306.13;4954864;28;100826;-73
2023/12/02 08:56:59;;;;;;;63.87;33.03;;;;;;;1.97;63.99;99294.41;4957841;28;101396;-73
2023/12/02 08:59:25;;;;;;;61.77;34.67;;;;;;;2.12;63.95;99297.63;4960376;28;97160;-73
2023/12/02 09:01:50;;;;;;;76.87;39.53;;;;;;;1.77;64.21;99279.16;4945134;28;97984;-73
2023/12/02 09:04:16;;;;;;;67.80;37.00;;;;;;;1.93;64.53;99285.00;4961263;28;101757;-73
2023/12/02 09:06:41;;;;;;;63.43;35.67;;;;;;;2.04;64.01;99282.25;4972599;28;97768;-72
2023/12/02 09:09:07;;;;;;;70.73;37.97;;;;;;;1.91;64.13;99286.72;4978824;28;97259;-73
2023/12/02 09:11:33;;;;;;;64.13;36.17;;;;;;;2.06;64.22;99301.16;4987250;28;97027;-73
2023/12/02 09:13:59;;;;;;;67.60;38.53;;;;;;;2.01;63.94;99306.44;4947682;28;101496;-73
2023/12/02 09:16:26;;;;;;;76.73;39.87;;;;;;;1.96;64.28;99299.63;4982283;28;97271;-73
2023/12/02 09:18:52;;;;;;;68.40;38.17;;;;;;;1.93;63.83;99318.63;4964067;28;97827;-72
2023/12/02 09:21:20;;;;;;;75.97;40.23;;;;;;;1.99;64.41;99326.31;4940830;28;97817;-73
2023/12/02 09:23:50;;;;;;;64.70;36.83;;;;;;;2.13;63.82;99338.19;4979235;28;100908;-73
2023/12/02 09:26:25;;;;;;;73.30;40.73;;;;;;;2.31;63.85;99337.91;4960594;28;97370;-74
2023/12/02 09:28:51;;;;;;;69.80;39.37;;;;;;;2.47;64.15;99328.13;4977326;28;97296;-73
2023/12/02 09:31:17;;;;;;;75.23;40.30;;;;;;;2.59;63.53;99320.16;4947638;28;96872;-73
2023/12/02 09:33:43;;;;;;;72.53;41.30;;;;;;;2.64;63.48;99320.06;4960886;28;101390;-73
2023/12/02 09:36:31;;;;;;;71.63;38.83;;;;;;;2.58;63.54;99308.06;4945538;28;101030;-73
2023/12/02 09:39:22;;;;;;;82.80;42.67;;;;;;;2.66;63.43;99298.44;4971289;28;96951;-74
2023/12/02 09:41:58;;;;;;;76.97;41.10;;;;;;;2.76;62.66;99300.84;4972733;28;96753;-73
2023/12/02 09:44:29;;;;;;;74.53;42.40;;;;;;;2.82;62.95;99295.56;4993959;28;98973;-73
2023/12/02 09:47:01;;;;;;;79.75;43.55;;;;;;;2.76;63.01;99296.53;4974476;28;101403;-74
2023/12/02 09:49:38;;;;;;;76.63;40.38;;;;;;;2.75;62.96;99301.75;4976858;28;96755;-74
2023/12/02 09:52:25;;;;;;;83.13;44.50;;;;;;;2.77;62.96;99311.22;4977444;28;98054;-73
2023/12/02 09:55:09;;;;;;;81.87;43.23;;;;;;;2.66;62.84;99320.91;4992148;28;100812;-73
2023/12/02 09:57:40;;;;;;;83.63;44.37;;;;;;;2.66;62.86;99308.81;4980137;28;101040;-74
2023/12/02 10:00:27;;;;;;;86.33;42.70;;;;;;;2.72;63.25;99292.28;4973235;28;97164;-73
2023/12/02 10:03:17;;;;;;;79.23;44.17;;;;;;;2.74;63.04;99290.53;4950408;28;97756;-74
2023/12/02 10:06:20;;;;;;;81.57;45.63;;;;;;;2.75;63.10;99265.47;4956603;28;100957;-74
2023/12/02 10:09:15;;;;;;;73.67;43.47;;;;;;;2.80;63.00;99250.69;4957526;28;97328;-74
2023/12/02 10:12:00;;;;;;;77.53;44.90;;;;;;;2.90;62.84;99234.06;4964835;28;97011;-74
2023/12/02 10:14:26;;;;;;;78.47;42.10;;;;;;;3.11;62.68;99230.16;4957462;28;98130;-73
2023/12/02 10:16:54;;;;;;;79.47;44.47;;;;;;;2.99;61.97;99236.44;4977519;28;97307;-74
2023/12/02 10:19:44;;;;;;;77.60;42.43;;;;;;;3.03;61.93;99256.25;4961675;28;101337;-74
2023/12/02 10:22:10;;;;;;;78.77;43.13;;;;;;;3.07;61.83;99246.69;4996057;28;97324;-74
2023/12/02 10:24:40;;;;;;;79.03;41.67;;;;;;;2.93;62.38;99265.09;4985351;28;97342;-74
2023/12/02 10:27:13;;;;;;;79.40;43.27;;;;;;;3.00;61.91;99284.84;4974799;28;99480;-74
2023/12/02 10:30:09;;;;;;;74.83;40.20;;;;;;;3.01;62.00;99276.19;4974349;28;101389;-74
2023/12/02 10:32:48;;;;;;;67.80;39.37;;;;;;;3.10;61.46;99282.91;4961261;28;96883;-74
2023/12/02 10:35:18;;;;;;;71.67;40.67;;;;;;;3.13;61.40;99280.25;4959698;28;97003;-74
2023/12/02 10:37:44;;;;;;;74.07;39.90;;;;;;;3.16;61.75;99280.19;4958507;28;97679;-74
2023/12/02 10:40:13;;;;;;;73.00;41.10;;;;;;;3.13;62.06;99282.84;4960446;28;101298;-74
2023/12/02 10:42:39;;;;;;;75.27;39.87;;;;;;;3.15;61.86;99313.06;4976022;28;97317;-74
2023/12/02 10:45:06;;;;;;;71.03;38.97;;;;;;;3.07;61.66;99322.72;4978047;28;97159;-74
2023/12/02 10:47:32;;;;;;;74.53;39.33;;;;;;;3.14;61.43;99333.81;4981504;28;98137;-74
2023/12/02 10:50:01;;;;;;;63.93;38.37;;;;;;;3.04;61.79;99325.38;4977484;28;98070;-75
2023/12/02 10:52:30;;;;;;;69.90;37.93;;;;;;;2.93;62.01;99338.53;4979419;28;96847;-74
2023/12/02 10:55:02;;;;;;;68.57;39.53;;;;;;;2.99;62.18;99314.22;4966457;28;96855;-73
2023/12/02 10:57:27;;;;;;;76.25;38.88;;;;;;;2.93;61.95;99293.63;4995431;28;100518;-74
2023/12/02 10:59:59;;;;;;;77.53;40.13;;;;;;;3.02;62.27;99298.63;4967520;28;97590;-74
2023/12/02 11:02:37;;;;;;;72.13;38.97;;;;;;;2.93;62.42;99293.63;4975970;28;97811;-76
2023/12/02 11:05:21;;;;;;;67.47;38.73;;;;;;;2.99;62.02;99279.69;4966452;28;97465;-76
2023/12/02 11:07:49;;;;;;;74.23;40.67;;;;;;;3.02;62.18;99283.06;4979871;28;101789;-74
2023/12/02 11:10:19;;;;;;;66.07;39.33;;;;;;;2.92;62.34;99266.84;4978962;28;101394;-79
2023/12/02 11:13:11;;;;;;;69.37;39.87;;;;;;;2.97;62.14;99260.69;4983314;28;99341;-76
2023/12/02 11:15:39;;;;;;;;;;;;;;;2.94;62.35;99264.22;4992776;28;96736;-75
2023/12/02 11:18:06;;;;;;;68.93;39.80;;;;;;;2.86;62.60;99264.38;4963693;28;97595;-75
2023/12/02 11:21:04;;;;;;;77.20;41.73;;;;;;;2.87;62.81;99268.66;4980996;28;101510;-73
2023/12/02 11:23:49;;;;;;;82.33;44.57;;;;;;;2.97;62.95;99256.41;4964295;28;96866;-74
2023/12/02 11:26:45;;;;;;;85.33;44.13;;;;;;;2.94;62.82;99261.63;4979389;28;97669;-74